Time;durP1;ratioP1;P1;durP2;ratioP2;P2;SDS_P1;SDS_P2;PMS_P1;PMS_P2;Temp;Humidity;BMP_temperature;BMP_pressure;BME280_temperature;BME280_humidity;BME280_pressure;Samples;Min_cycle;Max_cycle;Signal;HPM_P1;HPM_P2
2023/04/05 00:00:14;;;;;;;7.90;4.45;;;;;;;9.43;45.56;102389.09;5118719;28;20051;-64
2023/04/05 00:02:42;;;;;;;7.00;3.85;;;;;;;9.41;45.67;102389.28;5110743;28;20263;-64
2023/04/05 00:05:11;;;;;;;9.00;4.20;;;;;;;9.40;46.32;102384.06;5119903;28;20043;-64
2023/04/05 00:07:39;;;;;;;7.88;4.60;;;;;;;9.38;46.16;102397.66;5119649;28;20066;-64
2023/04/05 00:10:09;;;;;;;7.53;3.88;;;;;;;9.37;45.78;102395.16;5122315;28;20073;-64
2023/04/05 00:12:37;;;;;;;6.25;3.53;;;;;;;9.36;45.79;102396.19;5127625;28;20136;-64
2023/04/05 00:15:05;;;;;;;7.72;4.78;;;;;;;9.34;45.95;102398.19;5123038;28;20071;-65
2023/04/05 00:17:34;;;;;;;7.18;4.28;;;;;;;9.33;45.79;102396.53;5114448;28;20055;-65
2023/04/05 00:20:06;;;;;;;7.63;4.28;;;;;;;9.30;46.03;102394.19;5112792;28;20119;-66
2023/04/05 00:22:35;;;;;;;10.38;5.28;;;;;;;9.28;46.32;102397.06;5124123;28;20331;-65
2023/04/05 00:25:04;;;;;;;7.97;4.05;;;;;;;9.28;45.51;102388.16;5126928;28;20047;-65
2023/04/05 00:27:33;;;;;;;8.48;4.25;;;;;;;9.27;45.57;102391.84;5126568;28;20052;-65
2023/04/05 00:30:01;;;;;;;6.63;3.55;;;;;;;9.25;45.30;102392.03;5124280;28;20049;-64
2023/04/05 00:32:28;;;;;;;8.77;4.25;;;;;;;9.24;45.37;102387.69;5125443;28;20039;-66
2023/04/05 00:34:56;;;;;;;9.10;4.72;;;;;;;9.25;45.78;102393.88;5126754;28;20058;-63
2023/04/05 00:37:24;;;;;;;10.00;4.53;;;;;;;9.24;45.53;102393.03;5126089;28;20051;-65
2023/04/05 00:39:52;;;;;;;8.52;4.70;;;;;;;9.21;45.60;102393.41;5113854;28;20505;-65
2023/04/05 00:42:20;;;;;;;9.88;4.10;;;;;;;9.20;45.26;102381.00;5107964;28;20117;-64
2023/04/05 00:44:49;;;;;;;9.20;4.60;;;;;;;9.19;45.73;102389.22;5120148;28;20109;-64
2023/04/05 00:47:17;;;;;;;7.00;4.40;;;;;;;9.10;46.25;102367.78;5125086;28;20063;-65
2023/04/05 00:49:45;;;;;;;6.78;3.90;;;;;;;9.17;45.85;102373.31;5127443;28;20054;-65
2023/04/05 00:52:15;;;;;;;8.50;4.32;;;;;;;9.16;46.28;102379.69;5125927;28;20044;-65
2023/04/05 00:54:43;;;;;;;7.30;4.25;;;;;;;9.14;45.56;102377.16;5121769;28;20064;-65
2023/04/05 00:57:11;;;;;;;7.63;4.28;;;;;;;9.12;45.87;102368.47;5125127;28;20263;-65
2023/04/05 00:59:39;;;;;;;8.30;4.82;;;;;;;9.13;45.27;102369.28;5125378;28;20078;-65
2023/04/05 01:02:15;;;;;;;7.72;4.40;;;;;;;9.11;45.30;102372.16;5125710;28;21520;-65
2023/04/05 01:04:48;;;;;;;9.25;4.60;;;;;;;9.09;46.09;102373.34;5126248;28;20047;-66
2023/04/05 01:07:24;;;;;;;10.30;4.22;;;;;;;9.06;46.36;102374.53;5125197;28;20051;-66
2023/04/05 01:09:56;;;;;;;10.35;5.07;;;;;;;9.03;46.06;102374.88;5122393;28;20044;-65
2023/04/05 01:12:27;;;;;;;9.90;4.95;;;;;;;9.01;46.05;102376.88;5120883;28;20490;-64
2023/04/05 01:14:55;;;;;;;8.40;4.88;;;;;;;9.00;46.42;102374.38;5125688;28;20127;-65
2023/04/05 01:17:27;;;;;;;7.32;4.10;;;;;;;8.97;45.81;102380.94;5125380;28;20078;-65
2023/04/05 01:19:59;;;;;;;9.32;4.82;;;;;;;8.96;45.94;102376.56;5126844;28;20084;-65
2023/04/05 01:23:00;;;;;;;8.10;4.55;;;;;;;8.93;46.38;102371.56;5118905;28;20082;-65
2023/04/05 01:25:45;;;;;;;8.70;4.47;;;;;;;8.91;46.08;102364.69;5107818;28;20115;-64
2023/04/05 01:28:40;;;;;;;8.85;5.07;;;;;;;8.90;46.38;102363.88;5120550;28;20091;-65
2023/04/05 01:31:17;;;;;;;8.93;4.05;;;;;;;8.89;46.19;102361.34;5117450;28;20075;-65
2023/04/05 01:33:50;;;;;;;;;;;;;;;8.85;45.46;102351.97;5115949;28;20073;-65
2023/04/05 01:36:26;;;;;;;8.60;4.38;;;;;;;8.84;46.22;102353.84;5108562;28;19924;-65
2023/04/05 01:38:54;;;;;;;11.90;5.03;;;;;;;8.84;46.74;102355.69;5109065;28;20047;-66
2023/04/05 01:41:23;;;;;;;8.73;4.32;;;;;;;8.82;45.57;102354.00;5117547;28;20036;-66
2023/04/05 01:43:51;;;;;;;9.18;4.70;;;;;;;8.81;46.27;102357.69;5105417;28;20202;-65
2023/04/05 01:46:20;;;;;;;10.55;5.03;;;;;;;8.78;45.89;102352.69;5121990;28;20618;-65
2023/04/05 01:48:47;;;;;;;9.38;4.82;;;;;;;8.77;46.34;102348.31;5114747;28;20097;-64
2023/04/05 01:51:15;;;;;;;9.02;4.57;;;;;;;8.75;45.88;102349.50;5108864;28;20040;-64
2023/04/05 01:53:43;;;;;;;9.52;4.95;;;;;;;8.74;46.49;102346.00;5117747;28;20035;-66
2023/04/05 01:56:10;;;;;;;8.95;4.78;;;;;;;8.74;45.95;102345.16;5117934;28;20040;-65
2023/04/05 01:58:38;;;;;;;9.15;5.07;;;;;;;8.72;46.09;102342.66;5106875;28;20057;-64
2023/04/05 02:01:06;;;;;;;10.60;5.00;;;;;;;8.71;46.19;102345.50;5121831;28;20051;-65
2023/04/05 02:03:35;;;;;;;9.15;4.85;;;;;;;8.69;46.00;102343.00;5119599;28;20505;-65
2023/04/05 02:06:04;;;;;;;12.20;5.03;;;;;;;8.67;46.48;102336.97;5121717;28;20058;-65
2023/04/05 02:08:32;;;;;;;9.48;5.20;;;;;;;8.66;46.70;102337.19;5119484;28;20083;-64
2023/04/05 02:11:00;;;;;;;10.73;5.57;;;;;;;8.64;45.82;102345.38;5115566;28;20447;-64
2023/04/05 02:13:28;;;;;;;8.40;5.18;;;;;;;8.62;46.32;102331.31;5117925;28;20082;-64
2023/04/05 02:15:55;;;;;;;9.27;4.60;;;;;;;8.59;46.91;102334.34;5121676;28;20059;-64
2023/04/05 02:18:29;;;;;;;8.65;4.85;;;;;;;8.60;46.65;102343.22;5116872;28;20059;-65
2023/04/05 02:21:03;;;;;;;10.23;5.85;;;;;;;8.59;46.78;102336.19;5111427;28;20076;-65
2023/04/05 02:23:32;;;;;;;9.23;5.10;;;;;;;8.58;47.16;102338.03;5104054;28;20047;-65
2023/04/05 02:26:00;;;;;;;8.50;5.22;;;;;;;8.58;46.59;102331.84;5108258;28;20048;-65
2023/04/05 02:28:28;;;;;;;10.30;5.03;;;;;;;8.57;47.27;102339.03;5110538;28;20071;-64
2023/04/05 02:30:55;;;;;;;9.13;5.65;;;;;;;8.55;46.47;102329.50;5122194;28;20150;-65
2023/04/05 02:33:23;;;;;;;10.40;5.00;;;;;;;8.56;46.23;102328.50;5120353;28;20447;-64
2023/04/05 02:35:52;;;;;;;9.77;5.10;;;;;;;8.53;45.94;102328.84;5119548;28;20052;-66
2023/04/05 02:38:21;;;;;;;7.00;4.95;;;;;;;8.54;46.81;102327.84;5101746;28;20082;-65
2023/04/05 02:40:49;;;;;;;10.95;5.55;;;;;;;8.52;46.55;102322.66;5112276;28;20054;-66
2023/04/05 02:43:17;;;;;;;11.05;5.00;;;;;;;8.51;46.75;102326.34;5102570;28;20055;-65
2023/04/05 02:45:44;;;;;;;9.40;5.00;;;;;;;8.51;46.79;102330.84;5114552;28;20423;-66
2023/04/05 02:48:13;;;;;;;8.75;5.03;;;;;;;8.50;46.84;102331.88;5117580;28;20080;-65
2023/04/05 02:50:41;;;;;;;9.05;4.55;;;;;;;8.48;46.89;102329.34;5119545;28;20050;-65
2023/04/05 02:53:10;;;;;;;8.80;5.07;;;;;;;8.47;46.78;102325.00;5104387;28;20051;-65
2023/04/05 02:55:40;;;;;;;10.88;5.07;;;;;;;8.45;46.71;102327.03;5118537;28;20050;-65
2023/04/05 02:58:08;;;;;;;9.05;5.10;;;;;;;8.45;46.35;102329.69;5115065;28;20040;-65
2023/04/05 03:00:36;;;;;;;9.18;5.63;;;;;;;8.42;46.84;102328.19;5115544;28;20138;-64
2023/04/05 03:03:05;;;;;;;7.75;4.63;;;;;;;8.40;46.71;102324.84;5119915;28;20039;-65
2023/04/05 03:05:32;;;;;;;9.52;5.25;;;;;;;8.39;47.17;102317.00;5111308;28;20457;-65
2023/04/05 03:08:01;;;;;;;8.55;5.18;;;;;;;8.38;46.78;102318.84;5116344;28;20052;-65
2023/04/05 03:10:33;;;;;;;10.50;4.90;;;;;;;8.35;46.73;102313.81;5117753;28;20043;-65
2023/04/05 03:13:02;;;;;;;8.65;4.70;;;;;;;8.34;46.64;102314.81;5118897;28;20420;-65
2023/04/05 03:15:32;;;;;;;7.97;5.85;;;;;;;8.32;46.91;102308.78;5119733;28;20044;-65
2023/04/05 03:18:00;;;;;;;11.90;5.47;;;;;;;8.31;47.19;102307.09;5117476;28;20047;-65
2023/04/05 03:20:27;;;;;;;8.25;5.75;;;;;;;8.29;46.76;102306.44;5090865;28;20056;-65
2023/04/05 03:22:55;;;;;;;9.60;5.40;;;;;;;8.28;46.68;102309.28;5120567;28;20043;-65
2023/04/05 03:25:24;;;;;;;11.43;5.93;;;;;;;8.25;47.29;102297.06;5116466;28;20219;-65
2023/04/05 03:27:52;;;;;;;9.73;5.72;;;;;;;8.25;47.27;102294.38;5121146;28;20044;-65
2023/04/05 03:30:22;;;;;;;11.32;5.13;;;;;;;8.23;47.03;102293.72;5118107;28;20050;-65
2023/04/05 03:32:50;;;;;;;9.30;4.90;;;;;;;8.21;47.61;102289.53;5111492;28;20110;-65
2023/04/05 03:35:18;;;;;;;8.85;5.07;;;;;;;8.21;46.99;102293.06;5116972;28;20040;-65
2023/04/05 03:37:45;;;;;;;11.75;5.35;;;;;;;8.20;47.46;102287.88;5113597;28;20044;-64
2023/04/05 03:40:13;;;;;;;9.98;5.97;;;;;;;8.18;46.99;102290.72;5117204;28;20054;-64
2023/04/05 03:42:43;;;;;;;8.77;5.10;;;;;;;8.18;47.60;102292.56;5118725;28;20070;-65
2023/04/05 03:45:11;;;;;;;9.65;5.30;;;;;;;8.17;46.72;102294.41;5117850;28;20040;-65
2023/04/05 03:47:40;;;;;;;12.57;5.05;;;;;;;8.14;47.28;102286.72;5113045;28;20048;-64
2023/04/05 03:50:09;;;;;;;9.20;5.07;;;;;;;8.13;47.84;102285.03;5106327;28;20101;-66
2023/04/05 03:52:37;;;;;;;10.20;5.10;;;;;;;8.11;47.08;102284.38;5114605;28;20043;-65
2023/04/05 03:55:05;;;;;;;10.13;5.68;;;;;;;8.09;47.50;102279.19;5115848;28;20058;-64
2023/04/05 03:57:33;;;;;;;10.00;5.88;;;;;;;8.08;47.14;102274.84;5116742;28;20043;-64
2023/04/05 04:00:02;;;;;;;11.25;6.32;;;;;;;8.09;47.35;102291.75;5111500;28;20074;-65
2023/04/05 04:02:30;;;;;;;8.52;4.88;;;;;;;8.07;47.69;102280.38;5119012;28;20118;-64
2023/04/05 04:04:59;;;;;;;8.25;5.30;;;;;;;8.05;47.47;102277.88;5115271;28;20046;-65
2023/04/05 04:07:27;;;;;;;8.68;4.88;;;;;;;8.04;47.68;102270.84;5117933;28;20629;-66
2023/04/05 04:09:55;;;;;;;9.98;5.32;;;;;;;8.03;47.68;102274.53;5110610;28;20509;-65
2023/04/05 04:12:23;;;;;;;12.27;5.78;;;;;;;8.02;47.93;102277.38;5092291;28;20045;-65
2023/04/05 04:14:50;;;;;;;8.88;5.28;;;;;;;7.99;47.61;102272.34;5095539;28;20050;-65
2023/04/05 04:17:26;;;;;;;9.20;5.88;;;;;;;7.99;47.38;102272.34;5107540;28;20573;-66
2023/04/05 04:19:54;;;;;;;9.07;5.40;;;;;;;7.97;47.21;102275.19;5115132;28;20043;-64
2023/04/05 04:22:25;;;;;;;8.55;5.07;;;;;;;7.94;47.32;102267.50;5115964;28;20039;-65
2023/04/05 04:24:53;;;;;;;11.70;5.40;;;;;;;7.90;47.21;102262.66;5118788;28;20040;-63
2023/04/05 04:27:21;;;;;;;10.77;5.50;;;;;;;7.94;47.68;102266.66;5114807;28;20058;-64
2023/04/05 04:29:49;;;;;;;8.75;5.80;;;;;;;7.92;47.52;102271.34;5110762;28;20048;-64
2023/04/05 04:32:21;;;;;;;8.27;5.35;;;;;;;7.91;47.23;102261.66;5111909;28;20079;-65
2023/04/05 04:34:49;;;;;;;10.77;5.50;;;;;;;7.90;47.84;102273.38;5114431;28;20044;-65
2023/04/05 04:37:17;;;;;;;11.50;5.85;;;;;;;7.90;47.12;102276.03;5120015;28;20058;-65
2023/04/05 04:39:47;;;;;;;10.57;5.03;;;;;;;7.89;47.52;102274.38;5119367;28;20062;-65
2023/04/05 04:42:18;;;;;;;7.95;5.20;;;;;;;7.86;47.74;102270.19;5113299;28;20098;-65
2023/04/05 04:44:46;;;;;;;12.27;5.72;;;;;;;7.87;48.08;102271.88;5119463;28;20283;-65
2023/04/05 04:47:16;;;;;;;9.75;5.57;;;;;;;7.82;47.56;102261.66;5108981;28;20052;-66
2023/04/05 04:49:44;;;;;;;10.40;5.20;;;;;;;7.85;47.74;102265.84;5103350;28;20035;-65
2023/04/05 04:52:11;;;;;;;12.40;5.38;;;;;;;7.83;47.49;102268.69;5116642;28;20478;-65
2023/04/05 04:54:41;;;;;;;9.48;5.65;;;;;;;7.83;47.71;102270.53;5116465;28;20500;-65
2023/04/05 04:57:10;;;;;;;9.95;5.63;;;;;;;7.83;47.63;102270.53;5113362;28;20066;-64
2023/04/05 04:59:38;;;;;;;11.23;5.88;;;;;;;7.80;47.79;102271.69;5110208;28;20052;-64
2023/04/05 05:02:07;;;;;;;17.15;6.55;;;;;;;7.80;48.17;102271.69;5110941;28;20047;-62
2023/04/05 05:04:34;;;;;;;10.82;5.85;;;;;;;7.78;47.74;102265.69;5121443;28;20042;-65
2023/04/05 05:07:02;;;;;;;9.40;5.35;;;;;;;7.77;48.27;102269.38;5111317;28;20105;-60
2023/04/05 05:09:30;;;;;;;8.10;4.93;;;;;;;7.75;47.93;102274.06;5118727;28;20043;-65
2023/04/05 05:12:00;;;;;;;8.77;5.30;;;;;;;7.74;47.97;102266.19;5117935;28;20066;-64
2023/04/05 05:14:29;;;;;;;8.40;5.32;;;;;;;7.72;47.72;102262.84;5109545;28;20115;-65
2023/04/05 05:16:57;;;;;;;9.13;5.22;;;;;;;7.71;47.71;102272.72;5099494;28;20057;-65
2023/04/05 05:19:25;;;;;;;7.47;5.25;;;;;;;7.71;48.26;102271.88;5117715;28;20062;-64
2023/04/05 05:21:53;;;;;;;10.30;5.93;;;;;;;7.69;47.50;102271.22;5115890;28;20126;-64
2023/04/05 05:24:21;;;;;;;10.05;5.38;;;;;;;7.67;47.88;102271.38;5116424;28;20071;-64
2023/04/05 05:26:49;;;;;;;9.52;5.03;;;;;;;7.63;48.13;102256.66;5120860;28;20067;-65
2023/04/05 05:29:17;;;;;;;12.20;5.93;;;;;;;7.66;47.90;102263.53;5112150;28;20058;-66
2023/04/05 05:31:46;;;;;;;13.00;5.90;;;;;;;7.65;48.08;102259.16;5104739;28;20036;-65
2023/04/05 05:34:14;;;;;;;8.75;5.47;;;;;;;7.62;48.05;102260.34;5104187;28;20269;-67
2023/04/05 05:36:42;;;;;;;9.43;5.47;;;;;;;7.63;47.92;102266.53;5122395;28;20044;-67
2023/04/05 05:39:10;;;;;;;9.55;6.00;;;;;;;7.62;48.71;102254.16;5106365;28;20080;-64
2023/04/05 05:41:38;;;;;;;9.88;5.82;;;;;;;7.61;48.54;102257.84;5108912;28;20044;-65
2023/04/05 05:44:06;;;;;;;11.95;5.47;;;;;;;7.60;48.55;102258.84;5111741;28;20500;-67
2023/04/05 05:46:34;;;;;;;11.48;5.18;;;;;;;7.59;47.88;102265.19;5122426;28;20361;-65
2023/04/05 05:49:03;;;;;;;10.48;5.97;;;;;;;7.57;48.34;102260.00;4760472;28;9999956;-66
2023/04/05 05:51:32;;;;;;;10.32;5.50;;;;;;;7.57;47.88;102259.16;5119609;28;20249;-66
2023/04/05 05:54:00;;;;;;;10.43;5.18;;;;;;;7.56;48.13;102257.50;5114320;28;20121;-65
2023/04/05 05:56:28;;;;;;;11.85;6.07;;;;;;;7.55;48.25;102266.53;5102172;28;20400;-65
2023/04/05 05:58:55;;;;;;;10.07;6.22;;;;;;;7.56;48.11;102265.53;5104391;28;20074;-66
2023/04/05 06:01:26;;;;;;;10.30;5.68;;;;;;;7.56;48.09;102270.88;5118617;28;20056;-64
2023/04/05 06:03:54;;;;;;;9.25;5.57;;;;;;;7.55;48.44;102275.38;5118444;28;20074;-65
2023/04/05 06:06:24;;;;;;;8.82;5.28;;;;;;;7.55;48.11;102272.72;5115706;28;20059;-66
2023/04/05 06:08:51;;;;;;;11.35;6.20;;;;;;;7.54;48.46;102275.56;5116329;28;20055;-68
2023/04/05 06:11:20;;;;;;;9.43;5.15;;;;;;;7.53;48.26;102273.88;5107820;28;20056;-67
2023/04/05 06:13:50;;;;;;;9.00;5.68;;;;;;;7.53;48.41;102268.53;5107280;28;20108;-65
2023/04/05 06:16:18;;;;;;;10.48;6.43;;;;;;;7.50;48.59;102283.91;5118899;28;20512;-64
2023/04/05 06:18:46;;;;;;;10.40;5.72;;;;;;;7.54;48.58;102276.38;5120679;28;20103;-64
2023/04/05 06:21:14;;;;;;;11.90;6.07;;;;;;;7.57;47.72;102281.41;5119484;28;20467;-65
2023/04/05 06:23:43;;;;;;;11.60;6.20;;;;;;;7.62;48.03;102279.06;5122752;28;20134;-64
2023/04/05 06:26:17;;;;;;;12.18;5.88;;;;;;;7.64;48.52;102279.75;5120875;28;20086;-64
2023/04/05 06:28:46;;;;;;;13.48;6.00;;;;;;;7.70;48.09;102280.91;5118270;28;20107;-64
2023/04/05 06:31:16;;;;;;;10.98;5.97;;;;;;;7.74;48.18;102282.25;5120249;28;20090;-64
2023/04/05 06:33:44;;;;;;;11.18;5.60;;;;;;;7.78;47.94;102283.59;5114723;28;20044;-64
2023/04/05 06:36:12;;;;;;;11.35;5.95;;;;;;;7.80;47.81;102271.69;5122077;28;20050;-65
2023/04/05 06:38:40;;;;;;;8.85;5.65;;;;;;;7.83;47.62;102276.72;5113518;28;20043;-64
2023/04/05 06:41:09;;;;;;;11.18;5.75;;;;;;;7.87;47.86;102276.38;5109790;28;20146;-66
2023/04/05 06:43:37;;;;;;;14.05;5.80;;;;;;;7.87;48.31;102277.22;5119251;28;20093;-68
2023/04/05 06:46:07;;;;;;;14.38;6.45;;;;;;;7.93;47.44;102275.72;5114582;28;20071;-65
2023/04/05 06:48:35;;;;;;;9.52;5.45;;;;;;;7.94;47.88;102272.84;5106830;28;20047;-64
2023/04/05 06:51:04;;;;;;;9.35;5.25;;;;;;;7.94;48.18;102266.66;5117332;28;20051;-64
2023/04/05 06:53:31;;;;;;;7.75;5.10;;;;;;;7.97;47.83;102280.56;5113457;28;20097;-64
2023/04/05 06:55:59;;;;;;;8.88;5.32;;;;;;;7.98;47.68;102274.19;5110251;28;20044;-64
2023/04/05 06:58:29;;;;;;;9.77;5.13;;;;;;;8.03;48.19;102279.03;5114064;28;20277;-64
2023/04/05 07:00:56;;;;;;;9.32;5.43;;;;;;;8.02;48.06;102277.38;5106432;27;20040;-65
2023/04/05 07:03:25;;;;;;;8.05;5.40;;;;;;;8.05;48.34;102274.34;5107198;28;20052;-64
2023/04/05 07:05:54;;;;;;;9.80;5.38;;;;;;;8.10;48.41;102280.88;5119679;28;20048;-64
2023/04/05 07:08:21;;;;;;;10.25;5.53;;;;;;;8.12;48.09;102280.69;5115799;28;20055;-65
2023/04/05 07:10:50;;;;;;;15.32;5.25;;;;;;;8.16;48.11;102282.03;5113543;28;20039;-65
2023/04/05 07:13:19;;;;;;;12.23;5.50;;;;;;;8.19;48.13;102286.19;5119335;28;20083;-64
2023/04/05 07:15:48;;;;;;;9.80;4.75;;;;;;;8.20;47.64;102286.03;5106467;28;20103;-65
2023/04/05 07:18:15;;;;;;;11.57;5.13;;;;;;;8.20;47.96;102286.03;5107153;28;20855;-64
2023/04/05 07:20:47;;;;;;;12.65;5.13;;;;;;;8.22;47.95;102281.34;5120354;28;20349;-65
2023/04/05 07:23:15;;;;;;;8.57;5.07;;;;;;;8.23;48.20;102290.22;5111067;28;20067;-64
2023/04/05 07:25:43;;;;;;;15.13;5.18;;;;;;;8.19;47.96;102268.28;5099425;28;20098;-64
2023/04/05 07:28:10;;;;;;;10.02;5.57;;;;;;;8.26;47.71;102285.34;5108641;27;20054;-64
2023/04/05 07:30:38;;;;;;;10.52;5.82;;;;;;;8.28;47.71;102287.84;5110045;28;20076;-64
2023/04/05 07:33:08;;;;;;;11.43;5.30;;;;;;;8.31;48.19;102287.50;5110725;28;20054;-64
2023/04/05 07:35:35;;;;;;;10.85;5.35;;;;;;;8.33;48.00;102289.03;5113924;28;20040;-63
2023/04/05 07:38:03;;;;;;;8.57;5.28;;;;;;;8.36;47.68;102285.19;5107124;28;20048;-64
2023/04/05 07:40:31;;;;;;;10.93;5.70;;;;;;;8.36;47.74;102283.34;5114637;28;20047;-64
2023/04/05 07:42:59;;;;;;;9.20;5.35;;;;;;;8.38;47.75;102281.31;5096962;28;20048;-64
2023/04/05 07:45:27;;;;;;;8.40;5.15;;;;;;;8.38;47.55;102284.00;5112900;28;20044;-65
2023/04/05 07:47:54;;;;;;;8.48;5.55;;;;;;;8.38;47.53;102275.97;5112117;28;20048;-64
2023/04/05 07:50:23;;;;;;;11.32;4.95;;;;;;;8.31;48.24;102266.09;5097361;28;20052;-64
2023/04/05 07:52:51;;;;;;;8.07;5.18;;;;;;;8.39;47.48;102287.53;5119301;28;20039;-64
2023/04/05 07:55:19;;;;;;;7.60;5.18;;;;;;;8.38;47.68;102275.13;5116995;28;20070;-64
2023/04/05 07:57:50;;;;;;;11.93;5.57;;;;;;;8.40;47.99;102284.66;5118483;28;20083;-65
2023/04/05 08:00:18;;;;;;;10.35;4.75;;;;;;;8.39;47.81;102263.41;5112788;28;20111;-65
2023/04/05 08:02:46;;;;;;;12.05;5.13;;;;;;;8.45;47.91;102276.94;5121129;28;20062;-65
2023/04/05 08:05:14;;;;;;;9.38;4.68;;;;;;;8.43;47.69;102276.28;5112560;28;20050;-64
2023/04/05 08:07:43;;;;;;;13.50;5.32;;;;;;;8.38;48.30;102275.97;5120029;28;20047;-64
2023/04/05 08:10:11;;;;;;;10.35;5.43;;;;;;;8.34;48.54;102274.66;5117149;28;20040;-64
2023/04/05 08:12:39;;;;;;;11.10;5.63;;;;;;;8.34;47.53;102273.81;5113495;28;20572;-64
2023/04/05 08:15:07;;;;;;;11.38;4.50;;;;;;;8.29;48.44;102276.97;5114496;28;20050;-64
2023/04/05 08:17:35;;;;;;;8.02;5.05;;;;;;;8.27;48.46;102270.94;5117313;28;20071;-64
2023/04/05 08:20:04;;;;;;;8.13;4.97;;;;;;;8.28;47.96;102275.31;5117017;28;20155;-64
2023/04/05 08:22:31;;;;;;;10.50;5.63;;;;;;;8.32;47.38;102273.94;5117836;28;20166;-64
2023/04/05 08:25:00;;;;;;;9.23;4.95;;;;;;;8.33;47.26;102282.84;5120678;28;20341;-64
2023/04/05 08:27:28;;;;;;;8.50;5.47;;;;;;;8.36;47.06;102277.16;5117743;28;20047;-65
2023/04/05 08:29:56;;;;;;;8.48;4.65;;;;;;;8.38;46.61;102277.81;5116208;28;20036;-65
2023/04/05 08:32:24;;;;;;;9.85;5.00;;;;;;;8.39;46.37;102274.97;5122644;28;20047;-64
2023/04/05 08:34:52;;;;;;;8.85;4.65;;;;;;;8.39;47.01;102274.13;5116437;28;20044;-64
2023/04/05 08:37:20;;;;;;;10.48;5.22;;;;;;;8.41;47.05;102270.28;5121016;28;20036;-65
2023/04/05 08:39:47;;;;;;;10.27;5.93;;;;;;;8.42;46.45;102273.78;5116885;28;20085;-64
2023/04/05 08:42:18;;;;;;;8.15;5.00;;;;;;;8.42;47.58;102265.75;5109200;28;20139;-64
2023/04/05 08:44:51;;;;;;;7.85;4.60;;;;;;;8.43;46.87;102262.91;5113870;28;20128;-64
2023/04/05 08:47:19;;;;;;;8.90;4.82;;;;;;;8.46;46.84;102272.44;5110329;28;20044;-64
2023/04/05 08:49:47;;;;;;;8.70;4.28;;;;;;;8.46;47.24;102270.59;5103567;28;20424;-64
2023/04/05 08:52:15;;;;;;;12.02;4.60;;;;;;;8.47;47.55;102266.91;5116409;28;20097;-64
2023/04/05 08:54:43;;;;;;;10.70;4.28;;;;;;;8.48;46.94;102267.72;5120144;28;20058;-64
2023/04/05 08:57:11;;;;;;;7.40;4.45;;;;;;;8.51;45.84;102270.06;5108529;28;20059;-65
2023/04/05 08:59:43;;;;;;;9.85;4.43;;;;;;;8.66;45.64;102262.13;5120100;28;20039;-65
2023/04/05 09:02:16;;;;;;;9.27;3.95;;;;;;;8.86;45.25;102265.19;5115917;28;20073;-65
2023/04/05 09:04:45;;;;;;;12.57;4.65;;;;;;;9.03;44.69;102267.59;5118477;28;20051;-66
2023/04/05 09:07:14;;;;;;;9.65;4.22;;;;;;;9.23;44.31;102256.41;5107015;28;20560;-66
2023/04/05 09:09:46;;;;;;;7.68;4.30;;;;;;;9.43;44.07;102252.25;5115187;28;20096;-65
2023/04/05 09:12:14;;;;;;;11.77;4.68;;;;;;;9.64;42.40;102257.75;5119599;28;20610;-65
2023/04/05 09:14:44;;;;;;;7.30;4.40;;;;;;;9.82;42.59;102252.06;5119782;28;20051;-64
2023/04/05 09:17:13;;;;;;;7.85;4.50;;;;;;;9.98;42.22;102237.66;5119898;28;20039;-65
2023/04/05 09:19:42;;;;;;;9.15;4.70;;;;;;;10.22;41.69;102244.63;5121532;28;20116;-65
2023/04/05 09:22:10;;;;;;;8.63;3.95;;;;;;;10.39;41.64;102238.88;5114366;28;20048;-64
2023/04/05 09:24:40;;;;;;;11.50;5.03;;;;;;;10.53;41.00;102244.41;5108575;28;20102;-64
2023/04/05 09:27:10;;;;;;;14.23;5.55;;;;;;;10.61;39.78;102233.56;5119975;28;20035;-65
2023/04/05 09:29:39;;;;;;;6.95;4.32;;;;;;;10.65;40.82;102232.97;5113819;28;20044;-65
2023/04/05 09:32:10;;;;;;;12.38;4.38;;;;;;;10.57;40.57;102233.09;5115750;28;20047;-65
2023/04/05 09:34:39;;;;;;;7.93;4.32;;;;;;;10.39;40.72;102238.06;5108986;28;20336;-65
2023/04/05 09:37:13;;;;;;;9.93;4.47;;;;;;;10.20;40.57;102241.31;5108877;28;20040;-65
2023/04/05 09:39:42;;;;;;;10.63;4.93;;;;;;;10.03;41.47;102237.94;5103033;28;20139;-64
2023/04/05 09:42:12;;;;;;;9.65;4.13;;;;;;;9.90;42.60;102232.34;5105611;28;20063;-64
2023/04/05 09:44:50;;;;;;;7.45;4.00;;;;;;;9.82;42.10;102243.19;5111676;28;20051;-64
2023/04/05 09:47:21;;;;;;;8.55;4.60;;;;;;;9.73;42.93;102242.41;5120745;28;20043;-64
2023/04/05 09:49:49;;;;;;;10.18;4.20;;;;;;;9.63;42.99;102237.31;5117780;28;20051;-65
2023/04/05 09:52:24;;;;;;;7.35;4.20;;;;;;;9.56;44.11;102233.69;5118306;28;20093;-65
2023/04/05 09:54:54;;;;;;;8.35;4.78;;;;;;;9.54;43.30;102233.03;5116183;28;20127;-65
2023/04/05 09:57:22;;;;;;;9.55;4.25;;;;;;;9.53;44.21;102242.09;5094342;28;20112;-67
2023/04/05 09:59:50;;;;;;;7.65;4.43;;;;;;;9.52;44.90;102234.22;5115722;28;20103;-66
2023/04/05 10:02:21;;;;;;;7.93;4.25;;;;;;;9.48;44.98;102225.69;5117829;28;20630;-66
2023/04/05 10:04:49;;;;;;;8.10;4.10;;;;;;;9.47;44.25;102226.72;5114279;28;20050;-66
2023/04/05 10:07:19;;;;;;;7.18;3.70;;;;;;;9.48;45.23;102222.19;5115611;28;20036;-66
2023/04/05 10:09:48;;;;;;;6.95;4.53;;;;;;;9.49;45.18;102221.16;5116568;28;20071;-66
2023/04/05 10:12:25;;;;;;;8.45;4.40;;;;;;;9.51;44.31;102221.81;5119799;28;20475;-66
2023/04/05 10:14:53;;;;;;;7.60;4.43;;;;;;;9.51;43.83;102211.91;5113350;28;20358;-66
2023/04/05 10:17:28;;;;;;;7.78;4.20;;;;;;;9.51;44.89;102209.22;5119175;28;20063;-66
2023/04/05 10:20:09;;;;;;;7.25;4.47;;;;;;;9.51;44.37;102205.72;5119324;28;20111;-66
2023/04/05 10:22:44;;;;;;;9.15;4.28;;;;;;;9.48;44.93;102209.59;5119792;28;20108;-66
2023/04/05 10:25:21;;;;;;;8.32;4.50;;;;;;;9.49;43.47;102207.75;5122626;28;20065;-66
2023/04/05 10:27:53;;;;;;;10.07;4.95;;;;;;;9.51;43.21;102198.50;5120143;28;20421;-66
2023/04/05 10:30:24;;;;;;;8.48;5.03;;;;;;;9.51;43.79;102198.50;5111562;28;20066;-66
2023/04/05 10:33:11;;;;;;;7.00;4.75;;;;;;;9.52;43.85;102193.97;5122118;28;20131;-66
2023/04/05 10:35:49;;;;;;;10.98;4.90;;;;;;;9.52;43.44;102200.16;5118634;28;20044;-66
2023/04/05 10:38:23;;;;;;;8.13;4.85;;;;;;;9.56;42.58;102198.78;5121018;28;20047;-66
2023/04/05 10:40:54;;;;;;;12.90;6.00;;;;;;;9.58;42.02;102198.59;5120393;28;20048;-69
2023/04/05 10:43:29;;;;;;;9.52;4.82;;;;;;;9.62;42.00;102190.00;5114565;28;20106;-71
2023/04/05 10:45:59;;;;;;;7.45;4.65;;;;;;;9.63;42.66;102199.72;5096062;28;20098;-72
2023/04/05 10:48:40;;;;;;;9.13;4.47;;;;;;;9.67;43.25;102194.84;5099809;28;20039;-71
2023/04/05 10:51:09;;;;;;;11.32;4.93;;;;;;;9.69;42.70;102190.94;5120003;28;20051;-71
2023/04/05 10:53:37;;;;;;;11.13;4.75;;;;;;;9.71;43.37;102194.28;5117890;28;20047;-72
2023/04/05 10:56:06;;;;;;;8.35;4.50;;;;;;;9.74;42.63;102185.03;5112653;28;20068;-67
2023/04/05 10:58:36;;;;;;;10.48;5.20;;;;;;;9.78;42.81;102187.16;5091148;28;20044;-70
2023/04/05 11:01:04;;;;;;;8.98;4.85;;;;;;;9.82;43.12;102178.75;5098084;28;20043;-71
2023/04/05 11:03:46;;;;;;;12.13;5.22;;;;;;;9.85;43.04;102170.31;5113827;28;20039;-71
2023/04/05 11:06:22;;;;;;;7.38;4.60;;;;;;;9.86;43.47;102167.44;5127289;27;20078;-69
2023/04/05 11:08:54;;;;;;;7.07;4.78;;;;;;;9.90;43.44;102165.22;5115711;28;20143;-71
2023/04/05 11:11:23;;;;;;;9.77;5.20;;;;;;;9.92;43.24;102164.03;5105954;28;20123;-71
2023/04/05 11:13:53;;;;;;;10.75;5.10;;;;;;;9.97;43.35;102166.16;5118742;28;20058;-71
2023/04/05 11:16:21;;;;;;;10.15;4.55;;;;;;;9.99;42.96;102167.63;5119609;28;20162;-72
2023/04/05 11:18:52;;;;;;;7.65;4.45;;;;;;;10.00;42.34;102155.03;5115558;28;20063;-71
2023/04/05 11:21:22;;;;;;;11.43;4.43;;;;;;;10.03;41.91;102160.03;5105092;28;20054;-72
2023/04/05 11:24:02;;;;;;;9.98;4.65;;;;;;;10.04;42.16;102157.16;5104198;28;20107;-71
2023/04/05 11:26:52;;;;;;;10.38;4.85;;;;;;;10.07;41.91;102148.72;5097650;28;20067;-70
2023/04/05 11:29:48;;;;;;;10.57;4.53;;;;;;;10.08;42.42;102147.72;5114335;28;20043;-71
2023/04/05 11:32:17;;;;;;;8.65;4.95;;;;;;;10.13;42.95;102146.31;5105631;28;20058;-69
2023/04/05 11:34:58;;;;;;;8.50;4.20;;;;;;;10.18;43.29;102150.13;5099798;28;20076;-71
2023/04/05 11:38:05;;;;;;;9.32;3.95;;;;;;;10.23;43.66;102147.72;5102449;28;20560;-71
2023/04/05 11:40:34;;;;;;;7.45;3.92;;;;;;;10.29;44.05;102141.59;5116218;28;20043;-70